Time;durP1;ratioP1;P1;durP2;ratioP2;P2;SDS_P1;SDS_P2;PMS_P1;PMS_P2;Temp;Humidity;BMP_temperature;BMP_pressure;BME280_temperature;BME280_humidity;BME280_pressure;Samples;Min_cycle;Max_cycle;Signal;HPM_P1;HPM_P2
2022/06/29 00:00:29;;;;;;;2.80;2.60;;;14.30;99.90;;;;;;4994038;28;20299;-65
2022/06/29 00:02:57;;;;;;;3.87;2.70;;;14.10;99.90;;;;;;4994613;28;20196;-65
2022/06/29 00:05:25;;;;;;;3.77;2.77;;;14.10;99.90;;;;;;4994743;28;20586;-65
2022/06/29 00:07:53;;;;;;;3.03;2.47;;;14.20;99.90;;;;;;4994393;28;20197;-65
2022/06/29 00:10:21;;;;;;;6.27;3.07;;;14.30;99.90;;;;;;4993509;28;20204;-65
2022/06/29 00:12:48;;;;;;;3.20;2.90;;;14.50;99.90;;;;;;4993347;28;20219;-65
2022/06/29 00:15:17;;;;;;;5.37;3.13;;;14.50;99.90;;;;;;4993933;28;20556;-65
2022/06/29 00:17:46;;;;;;;4.40;2.60;;;14.50;99.90;;;;;;4994361;28;20675;-65
2022/06/29 00:20:13;;;;;;;3.10;2.30;;;14.20;99.90;;;;;;4994003;28;20209;-65
2022/06/29 00:22:41;;;;;;;3.63;2.93;;;13.90;99.90;;;;;;4994238;28;20197;-65
2022/06/29 00:25:08;;;;;;;4.33;3.17;;;13.80;99.90;;;;;;4990348;28;20198;-65
2022/06/29 00:27:35;;;;;;;3.10;2.50;;;14.10;99.90;;;;;;4989447;28;20221;-65
2022/06/29 00:30:02;;;;;;;3.40;2.60;;;14.00;99.90;;;;;;4984388;28;20668;-65
2022/06/29 00:32:30;;;;;;;3.17;2.60;;;14.00;99.90;;;;;;4993828;28;20217;-65
2022/06/29 00:34:59;;;;;;;2.57;2.37;;;13.90;99.90;;;;;;4993615;28;20205;-65
2022/06/29 00:37:26;;;;;;;2.80;2.60;;;13.40;99.90;;;;;;4993483;28;20220;-65
2022/06/29 00:39:53;;;;;;;5.33;3.00;;;13.40;99.90;;;;;;4992882;28;20209;-65
2022/06/29 00:42:20;;;;;;;3.80;3.00;;;13.70;99.90;;;;;;4994222;28;20216;-65
2022/06/29 00:44:47;;;;;;;5.40;3.00;;;14.00;99.90;;;;;;4993975;28;20575;-64
2022/06/29 00:47:14;;;;;;;4.03;2.53;;;13.80;99.90;;;;;;4994190;28;20205;-65
2022/06/29 00:49:41;;;;;;;3.43;3.13;;;13.40;99.90;;;;;;4993040;28;20659;-65
2022/06/29 00:52:11;;;;;;;4.10;3.00;;;13.40;99.90;;;;;;4993134;28;20692;-65
2022/06/29 00:54:41;;;;;;;4.50;3.30;;;13.50;99.90;;;;;;4992621;28;20229;-65
2022/06/29 00:57:12;;;;;;;6.73;4.77;;;13.70;99.90;;;;;;4993833;28;20209;-65
2022/06/29 00:59:44;;;;;;;11.97;6.80;;;13.90;99.90;;;;;;4992924;28;20251;-65
2022/06/29 01:02:12;;;;;;;11.47;6.00;;;14.00;99.90;;;;;;4993070;28;20213;-65
2022/06/29 01:04:39;;;;;;;10.47;6.20;;;14.20;99.90;;;;;;4993550;28;20228;-65
2022/06/29 01:07:07;;;;;;;10.53;6.90;;;14.20;99.90;;;;;;4990408;28;20213;-65
2022/06/29 01:09:35;;;;;;;9.53;6.40;;;14.20;99.90;;;;;;4992941;28;20647;-65
2022/06/29 01:12:03;;;;;;;12.20;7.77;;;14.20;99.90;;;;;;4993020;28;20279;-65
2022/06/29 01:14:29;;;;;;;9.23;6.33;;;14.20;99.90;;;;;;4993578;28;20225;-65
2022/06/29 01:16:56;;;;;;;11.17;6.90;;;14.20;99.90;;;;;;4993291;28;20284;-65
2022/06/29 01:19:24;;;;;;;10.67;6.20;;;14.20;99.90;;;;;;4992780;28;20205;-65
2022/06/29 01:21:52;;;;;;;13.13;6.87;;;14.20;99.90;;;;;;4992645;28;20205;-65
2022/06/29 01:24:23;;;;;;;8.70;6.50;;;14.20;99.90;;;;;;4992644;28;20201;-67
2022/06/29 01:26:50;;;;;;;13.20;6.93;;;14.20;99.90;;;;;;4992252;28;20678;-67
2022/06/29 01:29:17;;;;;;;9.17;6.20;;;14.20;99.90;;;;;;4992500;28;20200;-67
2022/06/29 01:31:45;;;;;;;7.03;4.23;;;14.20;99.90;;;;;;4993382;28;20550;-67
2022/06/29 01:34:12;;;;;;;4.50;3.50;;;14.20;99.90;;;;;;4992571;28;20225;-67
2022/06/29 01:36:39;;;;;;;4.33;3.27;;;13.70;99.90;;;;;;4992107;28;20213;-67
2022/06/29 01:39:06;;;;;;;4.83;3.23;;;13.40;99.90;;;;;;4991121;28;20216;-67
2022/06/29 01:41:34;;;;;;;4.70;4.20;;;13.30;99.90;;;;;;4993187;28;20205;-67
2022/06/29 01:44:01;;;;;;;8.07;4.73;;;13.00;99.90;;;;;;4992616;28;20201;-67
2022/06/29 01:46:28;;;;;;;8.70;4.70;;;13.10;99.90;;;;;;4992798;28;20205;-67
2022/06/29 01:48:55;;;;;;;6.27;4.23;;;13.50;99.90;;;;;;4992369;28;20647;-67
2022/06/29 01:51:22;;;;;;;8.63;5.03;;;13.50;99.90;;;;;;4992697;28;20216;-67
2022/06/29 01:53:49;;;;;;;5.00;4.30;;;13.70;99.90;;;;;;4992708;28;20252;-67
2022/06/29 01:56:15;;;;;;;5.33;3.97;;;13.70;99.90;;;;;;4992501;28;20209;-67
2022/06/29 01:58:45;;;;;;;6.03;3.27;;;13.70;99.90;;;;;;4992776;28;20197;-67
2022/06/29 02:01:12;;;;;;;4.43;3.27;;;13.60;99.90;;;;;;4991896;28;20292;-67
2022/06/29 02:03:39;;;;;;;3.20;2.90;;;12.60;99.90;;;;;;4992614;28;20205;-67
2022/06/29 02:06:06;;;;;;;4.00;3.40;;;12.70;99.90;;;;;;4992331;28;20198;-67
2022/06/29 02:08:33;;;;;;;4.23;3.67;;;12.90;99.90;;;;;;4982911;28;20197;-67
2022/06/29 02:11:01;;;;;;;4.47;3.83;;;13.00;99.90;;;;;;4986129;28;20210;-67
2022/06/29 02:13:28;;;;;;;6.60;4.30;;;13.20;99.90;;;;;;4987047;28;20252;-67
2022/06/29 02:15:56;;;;;;;6.57;4.00;;;13.10;99.90;;;;;;4992488;28;20678;-67
2022/06/29 02:18:23;;;;;;;5.10;3.73;;;13.30;99.90;;;;;;4992378;28;20205;-67
2022/06/29 02:20:50;;;;;;;4.93;3.87;;;13.40;99.90;;;;;;4992021;28;20208;-67
2022/06/29 02:23:17;;;;;;;5.87;3.90;;;13.50;99.90;;;;;;4991247;28;20207;-67
2022/06/29 02:25:44;;;;;;;4.67;3.07;;;13.50;99.90;;;;;;4992017;28;20209;-67
2022/06/29 02:28:11;;;;;;;5.97;4.07;;;13.50;99.90;;;;;;4992217;28;20209;-67
2022/06/29 02:36:08;;;;;;;4.90;3.50;;;13.50;99.90;;;;;;4992440;28;20239;-67
2022/06/29 02:38:35;;;;;;;3.37;3.00;;;13.00;99.90;;;;;;4991521;28;20683;-67
2022/06/29 02:41:02;;;;;;;5.20;3.73;;;13.00;99.90;;;;;;4991384;28;20221;-67
2022/06/29 02:43:29;;;;;;;4.43;3.40;;;13.10;99.90;;;;;;4991834;28;20201;-67
2022/06/29 02:45:57;;;;;;;4.00;3.40;;;13.10;99.90;;;;;;4992464;28;20233;-67
2022/06/29 02:48:25;;;;;;;4.00;3.40;;;13.10;99.90;;;;;;4992224;28;20197;-67
2022/06/29 02:50:52;;;;;;;5.30;3.30;;;13.30;99.90;;;;;;4992008;28;20205;-67
2022/06/29 02:53:19;;;;;;;3.40;3.10;;;13.40;99.90;;;;;;4991828;28;20560;-67
2022/06/29 02:55:46;;;;;;;3.50;3.20;;;13.50;99.90;;;;;;4992216;28;20213;-67
2022/06/29 02:58:12;;;;;;;4.33;2.90;;;13.50;99.90;;;;;;4991967;28;20593;-67
2022/06/29 03:00:39;;;;;;;3.37;3.07;;;13.80;99.90;;;;;;4982700;28;20209;-67
2022/06/29 03:03:06;;;;;;;3.50;3.20;;;13.70;99.90;;;;;;4994301;28;20738;-67
2022/06/29 03:05:34;;;;;;;5.37;3.70;;;13.40;99.90;;;;;;4988715;28;20201;-67
2022/06/29 03:08:01;;;;;;;5.30;3.50;;;12.70;99.90;;;;;;4988145;28;20220;-67
2022/06/29 03:10:28;;;;;;;3.93;3.10;;;12.60;99.90;;;;;;4994397;28;20201;-67
2022/06/29 03:12:55;;;;;;;5.67;3.50;;;12.70;99.90;;;;;;4989156;28;20201;-67
2022/06/29 03:15:25;;;;;;;5.20;3.50;;;12.90;99.90;;;;;;4981078;28;20233;-67
2022/06/29 03:17:52;;;;;;;4.30;3.90;;;13.00;99.90;;;;;;4982532;28;20289;-67
2022/06/29 03:20:19;;;;;;;5.90;4.33;;;13.10;99.90;;;;;;4994405;28;20213;-68
2022/06/29 03:22:47;;;;;;;5.97;3.90;;;12.80;99.90;;;;;;4995107;28;20209;-68
2022/06/29 03:25:15;;;;;;;9.20;4.23;;;13.20;99.90;;;;;;4994278;28;20652;-68
2022/06/29 03:27:41;;;;;;;8.77;4.37;;;13.40;99.90;;;;;;4994104;28;20656;-68
2022/06/29 03:30:10;;;;;;;6.20;4.40;;;13.60;99.90;;;;;;4994835;28;20205;-69
2022/06/29 03:32:37;;;;;;;6.47;4.63;;;13.60;99.90;;;;;;4995065;28;20231;-68
2022/06/29 03:35:04;;;;;;;7.67;4.10;;;13.90;99.90;;;;;;4994969;28;20287;-68
2022/06/29 03:37:31;;;;;;;4.63;3.93;;;13.70;99.90;;;;;;4994971;28;20204;-67
2022/06/29 03:40:00;;;;;;;7.30;4.40;;;13.90;99.90;;;;;;4994473;28;20644;-68
2022/06/29 03:42:26;;;;;;;7.23;4.27;;;14.10;99.90;;;;;;4995065;28;20216;-68
2022/06/29 03:44:54;;;;;;;5.80;3.83;;;14.10;99.90;;;;;;4995327;28;20232;-67
2022/06/29 03:47:21;;;;;;;3.60;3.30;;;14.30;99.90;;;;;;4994864;28;20204;-68
2022/06/29 03:49:48;;;;;;;5.47;3.67;;;14.20;99.90;;;;;;4992096;28;20644;-68
2022/06/29 03:52:14;;;;;;;6.20;4.00;;;14.30;99.90;;;;;;4992806;28;20215;-68
2022/06/29 03:54:41;;;;;;;4.20;3.80;;;14.00;99.90;;;;;;4993829;28;20221;-68
2022/06/29 03:57:09;;;;;;;5.27;3.90;;;14.10;99.90;;;;;;4994593;28;20682;-68
2022/06/29 03:59:36;;;;;;;5.53;4.00;;;14.10;99.90;;;;;;4994223;28;20209;-68
2022/06/29 04:02:03;;;;;;;7.33;4.00;;;14.40;99.90;;;;;;4994370;28;20205;-68
2022/06/29 04:04:30;;;;;;;12.07;5.13;;;14.70;99.90;;;;;;4994745;28;20212;-68
2022/06/29 04:06:57;;;;;;;8.87;4.80;;;14.90;99.90;;;;;;4994639;28;20216;-68
2022/06/29 04:09:24;;;;;;;6.83;4.90;;;15.00;99.90;;;;;;4993158;28;20652;-68
2022/06/29 04:11:52;;;;;;;6.37;4.40;;;14.80;99.90;;;;;;4992747;28;20201;-68
2022/06/29 04:14:22;;;;;;;4.83;3.30;;;14.70;99.90;;;;;;4974601;28;20217;-68
2022/06/29 04:16:50;;;;;;;10.83;5.03;;;15.20;99.90;;;;;;4987771;28;20252;-68
2022/06/29 04:19:16;;;;;;;4.07;3.67;;;15.20;99.90;;;;;;4993676;28;20213;-68
2022/06/29 04:21:43;;;;;;;10.83;4.43;;;15.00;99.90;;;;;;4993203;28;20200;-68
2022/06/29 04:24:10;;;;;;;7.67;4.53;;;14.90;99.90;;;;;;4992861;28;20676;-68
2022/06/29 04:26:37;;;;;;;4.33;3.93;;;15.00;99.90;;;;;;4994444;28;20252;-68
2022/06/29 04:29:04;;;;;;;6.93;3.80;;;15.60;99.90;;;;;;4993351;28;20212;-68
2022/06/29 04:31:32;;;;;;;6.93;4.80;;;15.80;99.90;;;;;;4992839;28;20209;-66
2022/06/29 04:33:59;;;;;;;4.67;3.90;;;15.50;99.90;;;;;;4991839;28;20217;-66
2022/06/29 04:36:27;;;;;;;4.80;3.80;;;15.60;99.90;;;;;;4992635;28;20220;-65
2022/06/29 04:38:54;;;;;;;5.97;4.07;;;15.60;99.90;;;;;;4993524;28;20207;-65
2022/06/29 04:41:21;;;;;;;5.15;4.03;;;15.20;99.90;;;;;;4993082;28;20201;-65
2022/06/29 04:43:48;;;;;;;4.28;3.88;;;15.30;99.90;;;;;;4993258;28;20205;-65
2022/06/29 04:46:21;;;;;;;7.67;4.40;;;15.40;99.90;;;;;;4986514;28;20201;-65
2022/06/29 04:48:51;;;;;;;5.68;4.10;;;15.50;99.90;;;;;;4993018;28;20205;-65
2022/06/29 04:51:19;;;;;;;4.40;3.80;;;15.70;99.90;;;;;;4990127;28;20205;-66
2022/06/29 04:53:46;;;;;;;12.48;4.32;;;15.60;99.90;;;;;;4982426;28;20220;-65
2022/06/29 04:56:14;;;;;;;16.37;4.53;;;15.50;99.90;;;;;;4975154;28;20208;-66
2022/06/29 04:58:41;;;;;;;17.20;4.93;;;15.20;99.90;;;;;;4991536;28;20212;-66
2022/06/29 05:01:08;;;;;;;31.63;6.63;;;14.80;99.90;;;;;;4990485;28;20208;-67
2022/06/29 05:03:35;;;;;;;23.70;5.90;;;14.70;99.90;;;;;;4990563;28;20590;-67
2022/06/29 05:06:04;;;;;;;24.80;5.73;;;15.00;99.90;;;;;;4990999;28;20200;-66
2022/06/29 05:08:30;;;;;;;22.90;6.37;;;15.40;99.90;;;;;;4983299;28;20210;-65
2022/06/29 05:10:57;;;;;;;16.73;5.37;;;15.90;99.90;;;;;;4991227;28;20429;-65
2022/06/29 05:13:24;;;;;;;23.00;6.27;;;16.20;99.90;;;;;;4972599;28;20660;-65
2022/06/29 05:15:51;;;;;;;12.57;5.10;;;16.50;99.90;;;;;;4975021;28;20229;-65
2022/06/29 05:18:18;;;;;;;9.93;4.97;;;17.10;99.90;;;;;;4993589;28;20220;-65
2022/06/29 05:20:45;;;;;;;14.43;4.78;;;17.00;99.90;;;;;;4992311;28;20205;-65
2022/06/29 05:23:13;;;;;;;5.03;3.80;;;16.80;99.90;;;;;;4977129;28;20204;-65
2022/06/29 05:25:40;;;;;;;6.07;4.63;;;16.90;99.90;;;;;;4992637;28;20201;-65
2022/06/29 05:28:07;;;;;;;5.82;4.05;;;16.90;99.90;;;;;;4993200;28;20348;-65
2022/06/29 05:30:34;;;;;;;5.78;4.57;;;17.40;99.90;;;;;;4992419;28;20213;-65
2022/06/29 05:33:01;;;;;;;7.00;4.28;;;17.80;99.90;;;;;;4993057;28;20224;-65
2022/06/29 05:35:29;;;;;;;9.48;4.53;;;17.30;99.90;;;;;;4992022;28;20228;-65
2022/06/29 05:37:57;;;;;;;5.25;3.90;;;17.50;99.90;;;;;;4992246;28;20216;-65
2022/06/29 05:40:25;;;;;;;6.80;4.18;;;17.50;99.90;;;;;;4992423;28;20615;-65
2022/06/29 05:42:52;;;;;;;16.08;4.25;;;17.50;99.90;;;;;;4992897;28;20209;-65
2022/06/29 05:45:19;;;;;;;8.90;4.20;;;17.50;99.90;;;;;;4993152;28;20613;-65
2022/06/29 05:47:46;;;;;;;6.03;3.85;;;18.40;99.90;;;;;;4993221;28;20570;-65
2022/06/29 05:50:13;;;;;;;8.63;4.13;;;18.60;99.90;;;;;;4991828;28;20205;-65
2022/06/29 05:52:40;;;;;;;5.78;4.10;;;18.20;99.90;;;;;;4991253;28;20263;-65
2022/06/29 05:55:07;;;;;;;5.55;3.65;;;18.10;99.90;;;;;;4973354;28;20225;-65
2022/06/29 05:57:35;;;;;;;9.65;4.47;;;18.40;99.90;;;;;;4988100;28;20666;-65
2022/06/29 06:00:03;;;;;;;5.93;4.10;;;18.70;99.90;;;;;;4992284;28;20205;-65
2022/06/29 06:02:30;;;;;;;5.82;3.72;;;18.50;99.90;;;;;;4992501;28;20208;-66
2022/06/29 06:04:57;;;;;;;4.38;3.40;;;18.40;99.90;;;;;;4973325;28;20212;-65
2022/06/29 06:07:24;;;;;;;4.45;3.70;;;18.40;99.90;;;;;;4990489;28;20215;-65
2022/06/29 06:09:51;;;;;;;3.90;3.50;;;18.60;99.90;;;;;;4991284;28;20251;-65
2022/06/29 06:12:18;;;;;;;6.20;3.53;;;18.70;99.90;;;;;;4992549;28;20682;-65
2022/06/29 06:14:46;;;;;;;5.53;3.38;;;18.80;99.90;;;;;;4992475;28;20220;-65
2022/06/29 06:17:12;;;;;;;3.90;3.38;;;18.90;99.90;;;;;;4992700;28;20215;-65
2022/06/29 06:19:39;;;;;;;7.18;4.00;;;19.00;99.90;;;;;;4991514;28;20205;-65
2022/06/29 06:22:06;;;;;;;9.13;3.83;;;19.00;99.90;;;;;;4992554;28;20219;-65
2022/06/29 06:24:33;;;;;;;9.38;3.95;;;19.00;99.90;;;;;;4992130;28;20537;-65
2022/06/29 06:27:00;;;;;;;6.63;4.05;;;19.20;99.90;;;;;;4992659;28;20205;-66
2022/06/29 06:29:26;;;;;;;7.28;3.90;;;19.00;99.90;;;;;;4991707;28;20200;-65
2022/06/29 06:31:54;;;;;;;5.97;4.18;;;19.30;99.90;;;;;;4992377;28;20200;-65
2022/06/29 06:34:23;;;;;;;6.18;3.90;;;19.30;99.90;;;;;;4991814;28;20209;-65
2022/06/29 06:36:50;;;;;;;4.97;3.60;;;19.50;99.90;;;;;;4992005;28;20294;-65
2022/06/29 06:39:16;;;;;;;8.63;4.00;;;19.40;99.90;;;;;;4989372;28;20205;-65
2022/06/29 06:41:42;;;;;;;4.35;3.90;;;19.60;99.90;;;;;;4976119;28;20209;-65
2022/06/29 06:44:09;;;;;;;4.55;3.85;;;19.60;99.90;;;;;;4989290;28;20197;-65
2022/06/29 06:46:36;;;;;;;22.52;4.70;;;19.80;99.90;;;;;;4996283;28;20232;-65
2022/06/29 06:49:05;;;;;;;5.45;4.10;;;19.90;99.90;;;;;;4995480;28;20209;-66
2022/06/29 06:51:31;;;;;;;6.05;4.47;;;20.10;99.90;;;;;;4996291;28;20216;-65
2022/06/29 06:53:58;;;;;;;5.53;3.92;;;20.10;99.90;;;;;;4991217;28;20201;-65
2022/06/29 06:56:25;;;;;;;7.63;4.28;;;20.20;99.90;;;;;;4976499;28;20232;-66
2022/06/29 06:58:52;;;;;;;8.13;4.03;;;20.40;99.90;;;;;;4981025;28;20197;-66
2022/06/29 07:01:19;;;;;;;6.82;4.25;;;20.30;99.40;;;;;;4987057;28;20201;-65
2022/06/29 07:03:46;;;;;;;6.07;4.10;;;20.50;98.50;;;;;;4984416;28;20220;-65
2022/06/29 07:06:14;;;;;;;4.07;3.67;;;20.50;98.90;;;;;;4989792;28;20202;-65
2022/06/29 07:08:41;;;;;;;6.00;3.53;;;20.60;95.60;;;;;;4992767;28;20577;-65
2022/06/29 07:11:09;;;;;;;7.07;3.55;;;20.80;99.80;;;;;;4990069;28;20206;-65
2022/06/29 07:13:36;;;;;;;7.25;4.43;;;21.20;97.10;;;;;;4986130;28;20625;-65
2022/06/29 07:16:05;;;;;;;5.93;3.88;;;21.20;93.00;;;;;;4975717;28;20565;-66
2022/06/29 07:18:32;;;;;;;5.63;4.18;;;21.40;96.90;;;;;;4982504;28;20208;-66
2022/06/29 07:20:59;;;;;;;7.50;3.92;;;21.40;94.60;;;;;;4995124;28;20580;-65
2022/06/29 07:23:28;;;;;;;5.50;3.97;;;21.40;99.90;;;;;;4995059;28;20212;-66
2022/06/29 07:25:55;;;;;;;4.53;3.58;;;21.70;94.70;;;;;;4994256;28;20608;-65
2022/06/29 07:28:22;;;;;;;6.75;4.38;;;21.80;97.00;;;;;;4995502;28;20584;-66
2022/06/29 07:30:49;;;;;;;5.00;4.50;;;21.70;95.00;;;;;;4994867;28;20220;-65
2022/06/29 07:33:16;;;;;;;5.28;4.20;;;21.80;96.00;;;;;;4995471;28;20669;-65
2022/06/29 07:35:42;;;;;;;5.18;4.03;;;21.90;94.20;;;;;;4994253;28;20236;-66
2022/06/29 07:38:10;;;;;;;6.80;4.20;;;22.10;99.90;;;;;;4994933;28;20212;-65
2022/06/29 07:40:39;;;;;;;5.47;4.00;;;22.20;95.30;;;;;;4994786;28;20562;-66
2022/06/29 07:43:06;;;;;;;5.40;4.10;;;22.40;94.60;;;;;;4995565;28;20640;-65
2022/06/29 07:45:32;;;;;;;4.63;3.85;;;22.30;90.90;;;;;;4995394;28;20568;-65
2022/06/29 07:47:59;;;;;;;6.60;3.85;;;22.40;94.90;;;;;;4994741;28;20295;-66
2022/06/29 07:50:26;;;;;;;4.47;4.13;;;22.40;92.60;;;;;;4993339;28;20205;-66
2022/06/29 07:52:53;;;;;;;4.35;3.92;;;22.40;90.80;;;;;;4994273;28;20201;-66
2022/06/29 07:55:19;;;;;;;4.15;3.75;;;22.50;91.40;;;;;;4994954;28;20687;-66
2022/06/29 07:57:50;;;;;;;5.65;3.88;;;22.60;92.20;;;;;;4995228;28;20647;-65
2022/06/29 08:00:17;;;;;;;5.10;4.18;;;22.80;96.40;;;;;;4994536;28;20201;-66
2022/06/29 08:02:44;;;;;;;3.72;3.40;;;22.80;92.30;;;;;;4994893;28;20574;-66
2022/06/29 08:05:11;;;;;;;4.47;4.00;;;22.90;92.30;;;;;;4994911;28;20232;-66
2022/06/29 08:07:37;;;;;;;6.57;4.10;;;22.90;92.10;;;;;;4991037;28;20204;-66
2022/06/29 08:10:07;;;;;;;5.43;3.60;;;22.90;95.60;;;;;;4993452;28;20567;-66
2022/06/29 08:12:35;;;;;;;4.30;4.00;;;23.00;93.60;;;;;;4994902;28;20263;-66
2022/06/29 08:15:03;;;;;;;5.10;4.20;;;23.00;90.20;;;;;;4994671;28;20279;-66
2022/06/29 08:17:30;;;;;;;5.03;4.00;;;23.10;90.00;;;;;;4995081;28;20209;-66
2022/06/29 08:19:57;;;;;;;4.00;3.67;;;23.30;89.30;;;;;;4994038;28;20303;-66
2022/06/29 08:22:24;;;;;;;4.50;3.58;;;23.40;82.50;;;;;;4994422;28;20208;-66
2022/06/29 08:24:51;;;;;;;4.35;4.03;;;23.70;86.00;;;;;;4994283;28;20216;-66
2022/06/29 08:27:21;;;;;;;3.45;3.25;;;23.90;80.20;;;;;;4994180;28;20204;-66
2022/06/29 08:29:48;;;;;;;5.70;3.60;;;24.00;83.90;;;;;;4993993;28;20248;-66
2022/06/29 08:32:16;;;;;;;3.60;3.30;;;23.90;79.70;;;;;;4994469;28;20211;-66
2022/06/29 08:34:43;;;;;;;3.90;3.60;;;23.90;78.80;;;;;;4994501;28;20205;-66
2022/06/29 08:37:10;;;;;;;5.32;3.63;;;24.00;80.80;;;;;;4994193;28;20212;-66
2022/06/29 08:39:37;;;;;;;4.63;3.40;;;24.10;81.20;;;;;;4993810;28;20209;-66
2022/06/29 08:42:06;;;;;;;3.72;3.33;;;24.30;83.60;;;;;;4994244;28;20209;-66
2022/06/29 08:44:34;;;;;;;4.85;3.75;;;24.30;80.00;;;;;;4993380;28;20205;-66
2022/06/29 08:47:02;;;;;;;6.00;3.50;;;24.50;76.40;;;;;;4994118;28;20205;-66
2022/06/29 08:49:31;;;;;;;4.35;3.70;;;24.70;73.50;;;;;;4993405;28;20251;-66
2022/06/29 08:51:58;;;;;;;3.95;3.65;;;24.50;69.40;;;;;;4994139;28;20644;-66
2022/06/29 08:54:26;;;;;;;4.70;4.13;;;24.50;72.30;;;;;;4993457;28;20215;-66
2022/06/29 08:56:54;;;;;;;4.20;3.90;;;24.80;79.80;;;;;;4994140;28;20280;-66
2022/06/29 08:59:22;;;;;;;4.30;4.00;;;24.60;72.10;;;;;;4992381;28;20205;-66
2022/06/29 09:01:50;;;;;;;3.85;3.55;;;24.50;74.10;;;;;;4993913;28;20679;-66
2022/06/29 09:04:17;;;;;;;4.50;4.10;;;24.30;73.80;;;;;;4993226;28;20209;-66
2022/06/29 09:06:46;;;;;;;4.38;4.00;;;24.10;75.50;;;;;;4993088;28;20208;-66
2022/06/29 09:09:13;;;;;;;4.30;3.83;;;24.00;78.00;;;;;;4984818;28;20208;-66
2022/06/29 09:11:43;;;;;;;4.70;4.03;;;24.30;74.80;;;;;;4991169;28;20547;-66
2022/06/29 09:14:15;;;;;;;5.30;4.22;;;24.50;72.30;;;;;;4986771;28;20205;-66
2022/06/29 09:16:56;;;;;;;6.57;4.50;;;25.00;70.90;;;;;;4990147;28;20275;-66
2022/06/29 09:19:25;;;;;;;4.95;4.20;;;25.30;71.60;;;;;;4990681;28;20263;-66
2022/06/29 09:21:55;;;;;;;4.53;4.18;;;25.60;68.20;;;;;;4992603;28;20208;-66
2022/06/29 09:24:23;;;;;;;8.73;4.97;;;25.70;68.90;;;;;;4993045;28;20203;-67
2022/06/29 09:26:51;;;;;;;4.45;4.10;;;25.80;62.30;;;;;;4992965;28;20663;-66
2022/06/29 09:29:23;;;;;;;5.22;4.72;;;25.30;63.60;;;;;;4972881;28;20209;-66
2022/06/29 09:32:15;;;;;;;5.47;4.40;;;25.20;63.10;;;;;;4978751;28;20208;-66
2022/06/29 09:34:44;;;;;;;5.47;4.97;;;25.80;61.70;;;;;;4970404;28;20563;-66
2022/06/29 09:37:14;;;;;;;5.30;4.65;;;25.50;62.00;;;;;;4992632;28;20225;-66
2022/06/29 09:39:44;;;;;;;8.05;4.68;;;25.20;66.60;;;;;;4992175;28;20208;-66
2022/06/29 09:42:13;;;;;;;5.18;4.57;;;25.30;64.10;;;;;;4992938;28;20212;-66
2022/06/29 09:44:40;;;;;;;7.22;4.75;;;26.00;57.90;;;;;;4990477;28;20212;-66
2022/06/29 09:47:09;;;;;;;5.68;4.38;;;25.50;58.30;;;;;;4992621;28;20209;-66
2022/06/29 09:49:37;;;;;;;5.15;4.68;;;25.80;59.70;;;;;;4984379;28;20245;-66
2022/06/29 09:52:07;;;;;;;5.10;4.60;;;25.90;58.10;;;;;;4992392;28;20615;-66
2022/06/29 09:54:37;;;;;;;5.28;4.78;;;25.80;58.80;;;;;;4993065;28;20559;-66
2022/06/29 09:57:07;;;;;;;5.38;4.80;;;25.50;57.50;;;;;;4992461;28;20229;-66
2022/06/29 10:02:36;;;;;;;5.45;4.47;;;25.50;60.20;;;;;;4963208;28;20208;-66
2022/06/29 10:05:06;;;;;;;7.38;4.85;;;25.40;60.60;;;;;;4989848;28;20216;-66
2022/06/29 10:07:34;;;;;;;5.85;5.05;;;25.50;62.10;;;;;;4973177;28;20198;-66
2022/06/29 10:10:05;;;;;;;8.02;4.85;;;25.20;62.00;;;;;;4976458;28;20201;-66
2022/06/29 10:16:16;;;;;;;6.45;5.75;;;24.90;66.40;;;;;;4984610;28;20293;-66
2022/06/29 10:19:05;;;;;;;5.90;4.57;;;24.70;64.10;;;;;;4979626;28;20201;-66
2022/06/29 10:21:33;;;;;;;6.10;5.50;;;24.80;64.20;;;;;;4989393;28;20216;-66
2022/06/29 10:24:01;;;;;;;5.07;4.40;;;24.80;66.00;;;;;;4989694;28;20209;-66
2022/06/29 10:26:45;;;;;;;7.45;6.05;;;25.20;67.70;;;;;;4987192;28;20204;-66
2022/06/29 10:29:32;;;;;;;6.30;5.00;;;25.20;65.00;;;;;;4986377;28;20209;-66
2022/06/29 10:32:23;;;;;;;6.13;5.38;;;25.00;62.80;;;;;;4986400;28;20645;-66
2022/06/29 10:35:08;;;;;;;5.90;5.15;;;24.80;64.50;;;;;;4986525;28;20201;-66
2022/06/29 10:37:48;;;;;;;5.57;5.07;;;25.20;67.70;;;;;;4984909;28;20597;-66
2022/06/29 10:40:22;;;;;;;7.03;5.00;;;25.10;63.20;;;;;;4988741;28;20208;-66
2022/06/29 10:43:08;;;;;;;6.07;5.13;;;25.00;63.10;;;;;;4990659;28;20632;-66
2022/06/29 10:45:37;;;;;;;8.27;5.95;;;25.20;65.30;;;;;;4984612;28;20267;-66
2022/06/29 10:48:20;;;;;;;8.73;4.95;;;24.90;67.60;;;;;;4990792;28;20204;-66
2022/06/29 10:50:47;;;;;;;5.18;4.75;;;25.30;63.30;;;;;;4983128;28;20201;-66
2022/06/29 10:53:16;;;;;;;5.18;4.78;;;25.50;61.90;;;;;;4985949;28;20219;-66
2022/06/29 10:55:45;;;;;;;5.05;4.53;;;25.20;66.30;;;;;;4985447;28;20212;-75
2022/06/29 10:58:13;;;;;;;5.38;4.88;;;25.20;58.90;;;;;;4989415;28;20201;-68
2022/06/29 11:00:41;;;;;;;5.50;4.97;;;25.00;60.00;;;;;;4987701;28;20205;-68
2022/06/29 11:03:14;;;;;;;4.80;4.30;;;24.80;62.50;;;;;;4989889;28;20251;-68
2022/06/29 11:13:57;;;;;;;5.38;4.55;;;24.80;67.50;;;;;;4988549;28;20231;-68
2022/06/29 11:16:28;;;;;;;4.60;4.18;;;24.50;70.20;;;;;;4984026;28;20619;-68
2022/06/29 11:18:56;;;;;;;4.07;3.78;;;24.60;72.10;;;;;;4981358;28;20228;-68
2022/06/29 11:21:24;;;;;;;4.00;3.70;;;24.20;60.60;;;;;;4988072;28;20209;-68
2022/06/29 11:23:56;;;;;;;4.82;4.03;;;24.10;59.40;;;;;;4992292;28;20201;-68
2022/06/29 11:26:24;;;;;;;5.45;4.00;;;24.20;59.70;;;;;;4980220;28;20200;-68
2022/06/29 11:28:52;;;;;;;4.10;3.80;;;24.30;63.30;;;;;;4986807;28;20687;-68
2022/06/29 11:31:19;;;;;;;5.65;3.92;;;24.40;61.50;;;;;;4993143;28;20891;-68
2022/06/29 11:33:49;;;;;;;4.97;4.57;;;24.40;62.10;;;;;;4994137;28;20264;-68
2022/06/29 11:36:17;;;;;;;5.10;4.60;;;24.40;63.70;;;;;;4983574;28;20280;-68
2022/06/29 11:38:46;;;;;;;5.60;4.10;;;24.50;69.10;;;;;;4994154;28;20201;-68
2022/06/29 11:41:14;;;;;;;4.55;4.15;;;24.60;66.60;;;;;;4994748;28;20220;-68
2022/06/29 11:43:41;;;;;;;5.22;4.57;;;24.80;68.60;;;;;;4994755;28;20209;-68
2022/06/29 11:46:19;;;;;;;4.72;4.32;;;24.90;66.70;;;;;;4994500;28;20263;-68
2022/06/29 11:51:31;;;;;;;4.70;4.20;;;25.30;64.90;;;;;;4993651;28;20709;-68
2022/06/29 11:54:01;;;;;;;5.25;4.10;;;25.00;68.40;;;;;;4994311;28;20208;-68
2022/06/29 11:56:31;;;;;;;4.97;3.90;;;24.60;69.20;;;;;;4994454;28;20268;-68
2022/06/29 11:59:01;;;;;;;4.32;3.70;;;24.80;71.10;;;;;;4994064;28;20221;-68
2022/06/29 12:01:29;;;;;;;3.83;3.38;;;25.10;68.00;;;;;;4994819;28;20224;-69
2022/06/29 12:03:57;;;;;;;5.03;3.50;;;25.50;66.40;;;;;;4991025;28;20205;-68
2022/06/29 12:06:27;;;;;;;3.95;3.40;;;25.80;67.90;;;;;;4985178;28;20201;-68
2022/06/29 12:08:55;;;;;;;3.90;3.60;;;26.00;57.30;;;;;;4993186;28;20205;-68
2022/06/29 12:11:23;;;;;;;3.58;3.22;;;25.90;58.00;;;;;;4974672;28;20202;-68
2022/06/29 12:13:50;;;;;;;3.70;3.40;;;26.10;58.40;;;;;;4981143;28;20666;-68
2022/06/29 12:16:18;;;;;;;4.32;3.60;;;26.20;51.30;;;;;;4994731;28;20661;-68
2022/06/29 12:18:46;;;;;;;5.25;3.50;;;26.50;49.70;;;;;;4994568;28;20544;-68
2022/06/29 12:21:13;;;;;;;5.13;3.20;;;26.90;51.30;;;;;;4991972;28;20212;-68
2022/06/29 12:23:40;;;;;;;3.47;3.17;;;26.50;53.40;;;;;;4993540;28;20209;-68
2022/06/29 12:26:08;;;;;;;3.50;3.25;;;26.70;48.10;;;;;;4993535;28;20216;-68
2022/06/29 12:28:37;;;;;;;4.45;3.70;;;27.50;47.20;;;;;;4993372;28;20213;-68
2022/06/29 12:31:04;;;;;;;3.35;3.13;;;27.20;50.90;;;;;;4993061;28;20209;-68
2022/06/29 12:33:31;;;;;;;4.07;3.67;;;26.10;52.50;;;;;;4993075;28;20568;-69
2022/06/29 12:35:59;;;;;;;3.63;3.33;;;25.90;51.20;;;;;;4980162;28;20216;-68
2022/06/29 12:38:26;;;;;;;5.30;4.38;;;26.90;49.10;;;;;;4992997;28;20205;-68
2022/06/29 12:40:53;;;;;;;6.63;3.42;;;26.60;48.70;;;;;;4993227;28;20292;-68
2022/06/29 12:43:20;;;;;;;4.18;3.70;;;27.00;47.10;;;;;;4994049;28;20201;-68
2022/06/29 12:45:46;;;;;;;4.90;3.47;;;26.70;46.60;;;;;;4993541;28;20232;-68
2022/06/29 12:48:14;;;;;;;5.47;3.70;;;26.40;49.10;;;;;;4994026;28;20197;-68
2022/06/29 12:50:42;;;;;;;3.67;3.38;;;26.30;51.50;;;;;;4993762;28;20213;-68
2022/06/29 12:53:10;;;;;;;4.68;3.35;;;26.00;52.80;;;;;;4992994;28;20640;-68
2022/06/29 12:55:37;;;;;;;3.70;3.40;;;25.50;56.20;;;;;;4981649;28;20200;-68
2022/06/29 12:58:03;;;;;;;3.42;3.13;;;25.30;51.00;;;;;;4987015;28;20240;-68
2022/06/29 13:00:30;;;;;;;2.95;2.75;;;25.20;46.00;;;;;;4982459;28;20660;-68
2022/06/29 13:02:57;;;;;;;3.08;2.88;;;25.30;49.40;;;;;;4986211;28;20201;-68
2022/06/29 13:05:24;;;;;;;3.38;2.45;;;25.70;46.80;;;;;;4986051;28;20221;-68
2022/06/29 13:07:54;;;;;;;3.00;2.70;;;25.80;43.50;;;;;;4983068;28;20236;-68
2022/06/29 13:10:22;;;;;;;2.72;2.40;;;25.80;41.90;;;;;;4983065;28;20201;-68
2022/06/29 13:12:49;;;;;;;3.55;2.80;;;25.90;41.90;;;;;;4989310;28;20714;-68